createdAt,value
2019-01-19T00:00:56.432Z,-0.60
2019-01-19T00:03:44.909Z,-0.70
2019-01-19T00:06:39.344Z,-0.60
2019-01-19T00:09:10.970Z,-0.60
2019-01-19T00:11:59.187Z,-0.70
2019-01-19T00:14:28.154Z,-0.60
2019-01-19T00:17:08.794Z,-0.60
2019-01-19T00:19:52.577Z,-0.60
2019-01-19T00:22:29.794Z,-0.60
2019-01-19T00:25:13.511Z,-0.60
2019-01-19T00:27:59.481Z,-0.70
2019-01-19T00:30:34.162Z,-0.70
2019-01-19T00:33:27.107Z,-0.60
2019-01-19T00:36:04.532Z,-0.70
2019-01-19T00:38:41.943Z,-0.60
2019-01-19T00:41:13.668Z,-0.60
2019-01-19T00:43:43.617Z,-0.70
2019-01-19T00:46:15.222Z,-0.70
2019-01-19T00:48:46.830Z,-0.80
2019-01-19T00:51:21.594Z,-0.80
2019-01-19T00:53:56.258Z,-0.80
2019-01-19T00:56:27.841Z,-0.70
2019-01-19T00:58:59.484Z,-0.70
2019-01-19T01:01:58.493Z,-0.80
2019-01-19T01:04:51.523Z,-0.80
2019-01-19T01:07:55.366Z,-0.80
2019-01-19T01:10:29.971Z,-0.80
2019-01-19T01:13:04.413Z,-0.80
2019-01-19T01:15:48.290Z,-0.80
2019-01-19T01:18:25.927Z,-0.80
2019-01-19T01:21:06.658Z,-0.80
2019-01-19T01:23:38.257Z,-0.80
2019-01-19T01:26:40.421Z,-0.80
2019-01-19T01:29:24.261Z,-0.90
2019-01-19T01:31:58.405Z,-0.90
2019-01-19T01:34:46.944Z,-0.90
2019-01-19T01:37:24.634Z,-0.90
2019-01-19T01:39:59.193Z,-0.90
2019-01-19T01:43:05.986Z,-0.90
2019-01-19T01:45:57.405Z,-0.90
2019-01-19T01:48:43.513Z,-0.90
2019-01-19T01:51:15.194Z,-0.90
2019-01-19T01:54:03.637Z,-0.90
2019-01-19T01:56:32.302Z,-0.90
2019-01-19T01:59:22.169Z,-0.90
2019-01-19T02:02:02.702Z,-0.90
2019-01-19T02:04:49.341Z,-0.90
2019-01-19T02:07:24.199Z,-0.90
2019-01-19T02:10:04.813Z,-0.90
2019-01-19T02:12:39.476Z,-0.90
2019-01-19T02:15:23.004Z,-0.90
2019-01-19T02:18:03.734Z,-0.90
2019-01-19T02:20:47.558Z,-0.90
2019-01-19T02:23:25.006Z,-0.80
2019-01-19T02:25:59.428Z,-0.90
2019-01-19T02:28:36.523Z,-0.90
2019-01-19T02:31:28.867Z,-0.90
2019-01-19T02:34:03.426Z,-1.00
2019-01-19T02:36:47.249Z,-1.00
2019-01-19T02:39:21.882Z,-0.90
2019-01-19T02:42:11.870Z,-0.90
2019-01-19T02:44:52.850Z,-0.90
2019-01-19T02:47:58.155Z,-1.00
2019-01-19T02:50:29.773Z,-0.90
2019-01-19T02:53:01.450Z,-0.90
2019-01-19T02:55:45.759Z,-0.90
2019-01-19T02:58:32.514Z,-0.90
2019-01-19T03:01:19.463Z,-0.90
2019-01-19T03:04:06.417Z,-1.00
2019-01-19T03:06:46.805Z,-1.00
2019-01-19T03:09:39.818Z,-1.10
2019-01-19T03:12:31.524Z,-1.10
2019-01-19T03:15:22.877Z,-1.00
2019-01-19T03:18:00.102Z,-1.00
2019-01-19T03:20:40.758Z,-1.00
2019-01-19T03:23:38.249Z,-1.00
2019-01-19T03:26:16.082Z,-1.00
2019-01-19T03:29:09.012Z,-1.10
2019-01-19T03:31:52.947Z,-1.10
2019-01-19T03:34:33.765Z,-1.10
2019-01-19T03:37:08.182Z,-1.10
2019-01-19T03:39:45.621Z,-1.20
2019-01-19T03:42:23.182Z,-1.20
2019-01-19T03:44:54.778Z,-1.20
2019-01-19T03:47:29.372Z,-1.20
2019-01-19T03:50:22.182Z,-1.20
2019-01-19T03:53:08.775Z,-1.20
2019-01-19T03:56:04.813Z,-1.20
2019-01-19T03:58:42.215Z,-1.20
2019-01-19T04:01:16.625Z,-1.20
2019-01-19T04:03:51.049Z,-1.20
2019-01-19T04:06:40.329Z,-1.20
2019-01-19T04:09:23.637Z,-1.20
2019-01-19T04:12:11.919Z,-1.20
2019-01-19T04:14:55.617Z,-1.30
2019-01-19T04:17:30.271Z,-1.30
2019-01-19T04:20:04.583Z,-1.50
2019-01-19T04:22:34.661Z,-1.30
2019-01-19T04:25:06.619Z,-1.20
2019-01-19T04:27:35.311Z,-1.20
2019-01-19T04:30:05.723Z,-1.30
2019-01-19T04:32:34.510Z,-1.30
2019-01-19T04:35:03.235Z,-1.20
2019-01-19T04:37:32.009Z,-1.20
2019-01-19T04:40:00.740Z,-1.10
2019-01-19T04:42:29.834Z,-1.20
2019-01-19T04:44:58.520Z,-1.20
2019-01-19T04:47:27.169Z,-1.10
2019-01-19T04:49:55.938Z,-1.10
2019-01-19T04:52:24.604Z,-1.20
2019-01-19T04:54:53.262Z,-1.20
2019-01-19T04:57:21.941Z,-1.10
2019-01-19T04:59:50.758Z,-1.30
2019-01-19T05:02:19.409Z,-1.40
2019-01-19T05:04:48.069Z,-1.30
2019-01-19T05:07:16.834Z,-1.20
2019-01-19T05:09:45.502Z,-1.20
2019-01-19T05:12:14.186Z,-1.20
2019-01-19T05:14:42.933Z,-1.30
2019-01-19T05:17:11.684Z,-1.20
2019-01-19T05:19:40.329Z,-1.40
2019-01-19T05:22:09.016Z,-1.40
2019-01-19T05:24:37.693Z,-1.30
2019-01-19T05:27:06.357Z,-1.30
2019-01-19T05:29:35.003Z,-1.20
2019-01-19T05:32:03.649Z,-1.30
2019-01-19T05:34:32.328Z,-1.30
2019-01-19T05:37:01.146Z,-1.30
2019-01-19T05:39:29.820Z,-1.30
2019-01-19T05:42:17.758Z,-1.30
2019-01-19T05:44:46.431Z,-1.20
2019-01-19T05:47:15.095Z,-1.20
2019-01-19T05:49:43.741Z,-1.20
2019-01-19T05:52:12.415Z,-1.20
2019-01-19T05:54:43.695Z,-1.30
2019-01-19T05:57:12.375Z,-1.40
2019-01-19T05:59:41.021Z,-1.30
2019-01-19T06:02:09.888Z,-1.20
2019-01-19T06:04:38.558Z,-1.30
2019-01-19T06:07:07.220Z,-1.30
2019-01-19T06:09:36.057Z,-1.30
2019-01-19T06:12:04.711Z,-1.40
2019-01-19T06:14:33.381Z,-1.30
2019-01-19T06:17:02.171Z,-1.30
2019-01-19T06:19:31.125Z,-1.30
2019-01-19T06:22:00.006Z,-1.40
2019-01-19T06:24:28.670Z,-1.50
2019-01-19T06:26:57.430Z,-1.40
2019-01-19T06:29:26.106Z,-1.40
2019-01-19T06:31:54.767Z,-1.40
2019-01-19T06:34:23.434Z,-1.40
2019-01-19T06:36:55.078Z,-1.40
2019-01-19T06:39:22.497Z,-1.40
2019-01-19T06:41:51.159Z,-1.50
2019-01-19T06:44:19.818Z,-1.40
2019-01-19T06:46:48.481Z,-1.40
2019-01-19T06:49:17.126Z,-1.40
2019-01-19T06:51:45.803Z,-1.50
2019-01-19T06:54:14.762Z,-1.50
2019-01-19T06:56:43.417Z,-1.50
2019-01-19T06:59:17.325Z,-1.50
2019-01-19T07:01:42.474Z,-1.60
2019-01-19T07:04:11.162Z,-1.60
2019-01-19T07:06:39.806Z,-1.60
2019-01-19T07:09:08.465Z,-1.70
2019-01-19T07:11:37.333Z,-1.70
2019-01-19T07:14:05.994Z,-1.70
2019-01-19T07:16:34.653Z,-1.70
2019-01-19T07:19:03.325Z,-1.70
2019-01-19T07:21:31.990Z,-1.70
2019-01-19T07:24:00.678Z,-1.80
2019-01-19T07:26:29.333Z,-1.80
2019-01-19T07:28:58.054Z,-1.70
2019-01-19T07:31:28.148Z,-1.70
2019-01-19T07:33:56.963Z,-1.70
2019-01-19T07:36:25.605Z,-2.00
2019-01-19T07:38:54.294Z,-1.80
2019-01-19T07:41:22.978Z,-1.80
2019-01-19T07:43:51.635Z,-2.00
2019-01-19T07:46:20.629Z,-1.90
2019-01-19T07:48:49.276Z,-1.90
2019-01-19T07:51:17.926Z,-1.80
2019-01-19T07:53:46.605Z,-1.80
2019-01-19T07:56:15.269Z,-1.70
2019-01-19T07:58:43.935Z,-1.70
2019-01-19T08:01:12.637Z,-1.60
2019-01-19T08:03:41.285Z,-1.60
2019-01-19T08:06:09.934Z,-1.60
2019-01-19T08:08:38.605Z,-1.80
2019-01-19T08:11:07.257Z,-1.80
2019-01-19T08:13:35.947Z,-1.80
2019-01-19T08:16:04.693Z,-1.90
2019-01-19T08:18:33.386Z,-2.00
2019-01-19T08:21:02.041Z,-2.10
2019-01-19T08:23:30.746Z,-1.90
2019-01-19T08:25:59.414Z,-1.80
2019-01-19T08:28:28.090Z,-1.70
2019-01-19T08:30:56.770Z,-2.00
2019-01-19T08:33:25.425Z,-1.70
2019-01-19T08:35:54.292Z,-1.70
2019-01-19T08:38:22.945Z,-1.80
2019-01-19T08:40:51.613Z,-2.00
2019-01-19T08:43:21.890Z,-1.70
2019-01-19T08:45:50.562Z,-1.60
2019-01-19T08:48:19.512Z,-1.40
2019-01-19T08:50:48.176Z,-1.30
2019-01-19T08:53:16.834Z,-1.40
2019-01-19T08:55:45.494Z,-1.10
2019-01-19T08:58:14.330Z,-1.00
2019-01-19T09:00:43.011Z,-0.80
2019-01-19T09:03:11.786Z,-0.70
2019-01-19T09:05:40.560Z,-0.70
2019-01-19T09:08:09.326Z,-1.40
2019-01-19T09:10:38.058Z,-1.30
2019-01-19T09:13:06.722Z,-1.40
2019-01-19T09:15:35.387Z,-1.00
2019-01-19T09:18:04.065Z,-1.30
2019-01-19T09:20:32.832Z,-1.30
2019-01-19T09:23:03.093Z,-1.40
2019-01-19T09:25:31.751Z,-1.50
2019-01-19T09:28:00.415Z,-1.40
2019-01-19T09:30:29.113Z,-1.40
2019-01-19T09:32:58.152Z,-1.50
2019-01-19T09:35:26.818Z,-1.40
2019-01-19T09:37:55.472Z,-1.40
2019-01-19T09:40:24.154Z,-1.50
2019-01-19T09:42:52.813Z,-1.50
2019-01-19T09:45:21.615Z,-1.40
2019-01-19T09:47:50.325Z,-1.30
2019-01-19T09:50:21.082Z,-1.20
2019-01-19T09:52:49.782Z,-1.10
2019-01-19T09:55:18.438Z,-0.70
2019-01-19T09:57:47.308Z,-0.40
2019-01-19T10:00:24.228Z,-0.20
2019-01-19T10:02:52.910Z,-0.10
2019-01-19T10:05:28.299Z,0.10
2019-01-19T10:07:56.972Z,0.10
2019-01-19T10:10:25.633Z,-0.10
2019-01-19T10:12:54.458Z,-0.30
2019-01-19T10:15:23.304Z,-0.30
2019-01-19T10:17:51.966Z,-0.30
2019-01-19T10:20:26.096Z,-0.30
2019-01-19T10:22:54.794Z,-0.20
2019-01-19T10:25:23.514Z,-0.20
2019-01-19T10:27:52.194Z,0.00
2019-01-19T10:30:23.608Z,0.30
2019-01-19T10:32:52.298Z,0.50
2019-01-19T10:35:20.988Z,0.80
2019-01-19T10:37:56.104Z,0.90
2019-01-19T10:40:20.141Z,1.20
2019-01-19T10:42:49.008Z,0.90
2019-01-19T10:45:23.084Z,1.20
2019-01-19T10:47:51.749Z,1.20
2019-01-19T10:50:20.431Z,1.30
2019-01-19T10:52:49.325Z,1.40
2019-01-19T10:55:20.073Z,1.80
2019-01-19T10:57:48.817Z,2.00
2019-01-19T11:00:26.270Z,2.80
2019-01-19T11:02:55.431Z,2.90
2019-01-19T11:05:24.100Z,2.80
2019-01-19T11:07:52.850Z,2.80
2019-01-19T11:10:26.964Z,2.90
2019-01-19T11:12:55.641Z,2.90
2019-01-19T11:15:24.294Z,3.00
2019-01-19T11:17:53.065Z,3.00
2019-01-19T11:20:27.077Z,3.00
2019-01-19T11:22:56.449Z,3.00
2019-01-19T11:25:25.100Z,3.00
2019-01-19T11:27:53.894Z,2.80
2019-01-19T11:30:25.039Z,2.90
2019-01-19T11:32:53.788Z,2.70
2019-01-19T11:35:22.568Z,2.80
2019-01-19T11:37:51.209Z,2.60
2019-01-19T11:40:25.579Z,2.60
2019-01-19T11:42:54.425Z,2.60
2019-01-19T11:45:23.861Z,2.70
2019-01-19T11:47:52.529Z,2.70
2019-01-19T11:50:22.712Z,2.70
2019-01-19T11:52:51.741Z,2.70
2019-01-19T11:55:21.296Z,2.60
2019-01-19T11:57:52.465Z,2.60
2019-01-19T12:00:25.721Z,2.70
2019-01-19T12:02:54.598Z,2.50
2019-01-19T12:05:23.261Z,2.70
2019-01-19T12:07:51.926Z,2.70
2019-01-19T12:10:25.840Z,2.80
2019-01-19T12:12:54.478Z,2.80
2019-01-19T12:15:23.184Z,3.00
2019-01-19T12:17:51.942Z,3.00
2019-01-19T12:20:23.522Z,3.00
2019-01-19T12:22:52.188Z,3.00
2019-01-19T12:25:25.193Z,3.00
2019-01-19T12:27:53.974Z,2.90
2019-01-19T12:30:25.289Z,2.90
2019-01-19T12:32:54.051Z,2.80
2019-01-19T12:35:22.727Z,2.80
2019-01-19T12:37:51.391Z,2.90
2019-01-19T12:40:22.191Z,3.10
2019-01-19T12:42:53.139Z,2.50
2019-01-19T12:45:30.485Z,2.00
2019-01-19T12:47:59.235Z,2.30
2019-01-19T12:50:28.283Z,2.30
2019-01-19T12:52:56.958Z,2.40
2019-01-19T12:55:25.670Z,2.20
2019-01-19T12:57:54.328Z,2.40
2019-01-19T13:00:25.678Z,2.20
2019-01-19T13:02:55.060Z,2.30
2019-01-19T13:05:38.841Z,2.40
2019-01-19T13:08:10.429Z,2.50
2019-01-19T13:10:47.937Z,2.50
2019-01-19T13:13:16.585Z,2.70
2019-01-19T13:15:48.188Z,2.90
2019-01-19T13:18:22.605Z,3.00
2019-01-19T13:21:29.387Z,3.00
2019-01-19T13:24:12.868Z,3.10
2019-01-19T13:26:59.301Z,1.70
2019-01-19T13:30:00.965Z,2.90
2019-01-19T13:33:03.636Z,2.80
2019-01-19T13:35:47.311Z,2.90
2019-01-19T13:38:47.781Z,3.00
2019-01-19T13:41:34.791Z,2.90
2019-01-19T13:44:23.196Z,2.90
2019-01-19T13:47:13.113Z,3.00
2019-01-19T13:50:04.432Z,3.00
2019-01-19T13:52:41.913Z,2.90
2019-01-19T13:55:25.676Z,2.80
2019-01-19T13:58:03.357Z,2.80
2019-01-19T14:01:00.870Z,2.70
2019-01-19T14:03:38.258Z,2.60
2019-01-19T14:06:15.826Z,2.80
2019-01-19T14:08:56.470Z,2.80
2019-01-19T14:11:36.750Z,2.80
2019-01-19T14:14:23.529Z,2.80
2019-01-19T14:17:04.469Z,2.70
2019-01-19T14:19:47.818Z,2.60
2019-01-19T14:22:35.949Z,2.40
2019-01-19T14:25:22.786Z,2.30
2019-01-19T14:28:12.734Z,2.50
2019-01-19T14:30:56.627Z,2.30
2019-01-19T14:33:34.084Z,2.20
2019-01-19T14:36:25.325Z,2.20
2019-01-19T14:39:02.736Z,2.20
2019-01-19T14:41:40.002Z,2.30
2019-01-19T14:44:11.605Z,2.10
2019-01-19T14:46:43.255Z,2.10
2019-01-19T14:49:29.596Z,2.10
2019-01-19T14:52:07.046Z,2.00
2019-01-19T14:54:38.635Z,2.00
2019-01-19T14:57:22.310Z,2.20
2019-01-19T15:00:00.102Z,2.20
2019-01-19T15:03:03.746Z,2.30
2019-01-19T15:05:47.347Z,2.20
2019-01-19T15:08:36.797Z,2.10
2019-01-19T15:11:26.838Z,2.10
2019-01-19T15:14:04.274Z,2.10
2019-01-19T15:16:52.414Z,1.90
2019-01-19T15:19:30.120Z,1.90
2019-01-19T15:22:18.377Z,2.00
2019-01-19T15:24:59.046Z,1.90
2019-01-19T15:27:30.657Z,1.80
2019-01-19T15:30:34.271Z,1.70
2019-01-19T15:33:22.238Z,1.70
2019-01-19T15:36:09.242Z,1.40
2019-01-19T15:38:46.860Z,1.50
2019-01-19T15:41:47.287Z,1.60
2019-01-19T15:44:21.717Z,1.50
2019-01-19T15:47:15.846Z,1.40
2019-01-19T15:49:53.287Z,1.20
2019-01-19T15:52:24.910Z,1.20
2019-01-19T15:55:22.282Z,1.20
2019-01-19T15:57:53.879Z,1.20
2019-01-19T16:00:37.548Z,1.20
2019-01-19T16:03:15.190Z,1.20
2019-01-19T16:06:06.623Z,1.00
2019-01-19T16:08:38.210Z,1.00
2019-01-19T16:11:12.589Z,0.80
2019-01-19T16:13:50.074Z,0.60
2019-01-19T16:16:58.237Z,0.70
2019-01-19T16:19:32.719Z,0.80
2019-01-19T16:22:19.058Z,0.60
2019-01-19T16:24:56.685Z,0.50
2019-01-19T16:27:43.509Z,0.40
2019-01-19T16:30:29.673Z,0.40
2019-01-19T16:33:26.558Z,0.40
2019-01-19T16:36:00.873Z,0.40
2019-01-19T16:38:38.422Z,0.50
2019-01-19T16:41:26.608Z,0.60
2019-01-19T16:44:25.629Z,0.60
2019-01-19T16:47:15.377Z,0.40
2019-01-19T16:49:53.053Z,0.50
2019-01-19T16:52:24.674Z,0.60
2019-01-19T16:55:14.408Z,0.40
2019-01-19T16:58:10.512Z,0.30
2019-01-19T17:01:14.285Z,0.20
2019-01-19T17:03:51.873Z,0.30
2019-01-19T17:06:47.985Z,0.40
2019-01-19T17:09:53.272Z,0.20
2019-01-19T17:12:41.574Z,0.20
2019-01-19T17:15:25.376Z,0.30
2019-01-19T17:18:12.189Z,0.10
2019-01-19T17:21:15.666Z,0.00
2019-01-19T17:23:53.158Z,0.10
2019-01-19T17:26:27.726Z,0.20
2019-01-19T17:29:11.311Z,0.10
2019-01-19T17:31:42.933Z,0.10
2019-01-19T17:34:23.647Z,0.10
2019-01-19T17:37:07.457Z,0.20
2019-01-19T17:39:51.110Z,0.20
2019-01-19T17:42:42.653Z,0.10
2019-01-19T17:45:29.338Z,0.20
2019-01-19T17:48:09.936Z,0.20
2019-01-19T17:51:04.505Z,0.20
2019-01-19T17:53:44.855Z,0.10
2019-01-19T17:56:34.789Z,0.10
2019-01-19T17:59:21.591Z,0.00
2019-01-19T18:01:59.127Z,-0.10
2019-01-19T18:04:33.531Z,0.00
2019-01-19T18:07:20.234Z,0.00
2019-01-19T18:10:10.046Z,0.00
2019-01-19T18:13:00.154Z,0.00
2019-01-19T18:15:47.090Z,0.10
2019-01-19T18:18:43.121Z,0.00
2019-01-19T18:21:26.445Z,0.10
2019-01-19T18:24:25.786Z,0.10
2019-01-19T18:26:58.737Z,0.00
2019-01-19T18:29:59.278Z,0.00
2019-01-19T18:32:46.210Z,0.00
2019-01-19T18:35:23.901Z,0.00
2019-01-19T18:38:11.248Z,-0.10
2019-01-19T18:40:51.910Z,-0.10
2019-01-19T18:43:35.782Z,-0.10
2019-01-19T18:46:16.349Z,-0.10
2019-01-19T18:49:08.856Z,-0.20
2019-01-19T18:52:01.829Z,-0.20
2019-01-19T18:54:51.975Z,-0.20
2019-01-19T18:57:38.265Z,-0.20
2019-01-19T19:00:18.449Z,-0.20
2019-01-19T19:03:14.497Z,-0.30
2019-01-19T19:06:07.111Z,-0.30
2019-01-19T19:08:44.627Z,-0.30
2019-01-19T19:11:25.259Z,-0.50
2019-01-19T19:13:59.746Z,-0.50
2019-01-19T19:16:49.598Z,-0.40
2019-01-19T19:19:27.154Z,-0.60
2019-01-19T19:22:15.465Z,-0.60
2019-01-19T19:25:20.867Z,-0.50
2019-01-19T19:27:52.465Z,-0.50
2019-01-19T19:30:39.278Z,-0.40
2019-01-19T19:33:30.645Z,-0.30
2019-01-19T19:36:21.998Z,-0.40
2019-01-19T19:38:53.593Z,-0.50
2019-01-19T19:41:37.335Z,-0.50
2019-01-19T19:44:20.931Z,-0.60
2019-01-19T19:47:10.755Z,-0.50
2019-01-19T19:49:54.593Z,-0.60
2019-01-19T19:52:27.926Z,-0.50
2019-01-19T19:54:52.433Z,-0.60
2019-01-19T19:57:21.098Z,-0.50
2019-01-19T19:59:49.819Z,-0.50
2019-01-19T20:02:18.484Z,-0.50
2019-01-19T20:04:47.144Z,-0.40
2019-01-19T20:07:15.817Z,-0.50
2019-01-19T20:09:44.470Z,-0.50
2019-01-19T20:12:13.265Z,-0.60
2019-01-19T20:14:41.946Z,-0.60
2019-01-19T20:17:10.622Z,-0.60
2019-01-19T20:19:39.571Z,-0.70
2019-01-19T20:22:08.316Z,-0.80
2019-01-19T20:24:36.969Z,-0.70
2019-01-19T20:27:05.683Z,-0.70
2019-01-19T20:29:34.330Z,-0.70
2019-01-19T20:32:03.225Z,-0.70
2019-01-19T20:34:31.910Z,-0.80
2019-01-19T20:37:00.661Z,-0.80
2019-01-19T20:39:29.305Z,-0.90
2019-01-19T20:41:57.984Z,-0.90
2019-01-19T20:44:26.647Z,-0.90
2019-01-19T20:46:55.321Z,-1.00
2019-01-19T20:49:23.985Z,-1.00
2019-01-19T20:51:52.680Z,-1.00
2019-01-19T20:54:21.368Z,-1.10
2019-01-19T20:56:50.023Z,-1.20
2019-01-19T20:59:18.715Z,-1.20
2019-01-19T21:01:47.380Z,-1.20
2019-01-19T21:04:16.171Z,-1.20
2019-01-19T21:06:45.073Z,-1.40
2019-01-19T21:09:13.729Z,-1.40
2019-01-19T21:11:42.397Z,-1.30
2019-01-19T21:14:11.167Z,-1.50
2019-01-19T21:16:39.858Z,-1.60
2019-01-19T21:19:08.539Z,-1.80
2019-01-19T21:21:37.189Z,-1.70
2019-01-19T21:24:05.957Z,-1.60
2019-01-19T21:26:34.616Z,-1.60
2019-01-19T21:29:03.297Z,-1.60
2019-01-19T21:31:31.954Z,-1.60
2019-01-19T21:34:00.624Z,-1.50
2019-01-19T21:36:29.283Z,-1.50
2019-01-19T21:38:57.961Z,-1.50
2019-01-19T21:41:26.623Z,-1.50
2019-01-19T21:43:55.470Z,-2.00
2019-01-19T21:46:24.169Z,-2.00
2019-01-19T21:48:52.809Z,-2.20
2019-01-19T21:51:21.502Z,-2.00
2019-01-19T21:53:50.174Z,-1.80
2019-01-19T21:56:18.838Z,-1.60
2019-01-19T21:58:47.501Z,-1.60
2019-01-19T22:01:16.223Z,-1.90
2019-01-19T22:03:44.920Z,-1.80
2019-01-19T22:06:13.573Z,-1.90
2019-01-19T22:08:42.234Z,-1.90
2019-01-19T22:11:10.917Z,-1.90
2019-01-19T22:13:39.569Z,-2.30
2019-01-19T22:16:08.241Z,-2.20
2019-01-19T22:18:36.917Z,-2.20
2019-01-19T22:21:05.577Z,-2.00
2019-01-19T22:23:34.261Z,-2.00
2019-01-19T22:26:02.954Z,-2.10
2019-01-19T22:28:31.611Z,-2.30
2019-01-19T22:31:00.286Z,-2.50
2019-01-19T22:33:28.965Z,-2.40
2019-01-19T22:35:57.650Z,-2.20
2019-01-19T22:38:26.340Z,-2.20
2019-01-19T22:40:55.001Z,-2.00
2019-01-19T22:43:24.162Z,-1.90
2019-01-19T22:45:52.827Z,-1.90
2019-01-19T22:48:21.493Z,-1.90
2019-01-19T22:50:50.181Z,-1.90
2019-01-19T22:53:18.874Z,-1.90
2019-01-19T22:55:47.529Z,-2.10
2019-01-19T22:58:16.228Z,-2.10
2019-01-19T23:00:58.604Z,-2.00
2019-01-19T23:03:28.295Z,-2.00
2019-01-19T23:05:56.946Z,-2.30
2019-01-19T23:08:25.614Z,-2.50
2019-01-19T23:11:00.940Z,-2.50
2019-01-19T23:13:24.701Z,-2.50
2019-01-19T23:15:53.381Z,-2.30
2019-01-19T23:18:22.065Z,-2.30
2019-01-19T23:20:50.711Z,-2.40
2019-01-19T23:23:19.391Z,-2.30
2019-01-19T23:25:48.087Z,-2.20
2019-01-19T23:28:16.780Z,-2.30
2019-01-19T23:30:45.441Z,-2.30
2019-01-19T23:33:14.298Z,-2.30
2019-01-19T23:35:43.015Z,-2.20
2019-01-19T23:38:11.702Z,-2.20
2019-01-19T23:40:40.348Z,-2.20
2019-01-19T23:43:09.026Z,-2.30
2019-01-19T23:45:37.691Z,-2.30
2019-01-19T23:48:06.354Z,-2.30
2019-01-19T23:50:35.122Z,-2.70
2019-01-19T23:53:03.777Z,-2.70
2019-01-19T23:55:32.456Z,-2.70
2019-01-19T23:58:01.111Z,-2.50
